Time;durP1;ratioP1;P1;durP2;ratioP2;P2;SDS_P1;SDS_P2;PMS_P1;PMS_P2;Temp;Humidity;BMP_temperature;BMP_pressure;BME280_temperature;BME280_humidity;BME280_pressure;Samples;Min_cycle;Max_cycle;Signal;HPM_P1;HPM_P2
2024/02/14 00:00:52;;;;;;;;;;;6.20;99.90;;;-146.41;100.00;57768.22;5018129;28;1413;-68
2024/02/14 00:03:20;;;;;;;;;;;6.20;99.90;;;-146.41;100.00;57768.22;5020552;28;1568;-70
2024/02/14 00:05:47;;;;;;;;;;;6.20;99.90;;;-146.41;100.00;57768.22;5018469;28;1439;-69
2024/02/14 00:08:14;;;;;;;;;;;6.20;99.90;;;-146.41;100.00;57768.22;5018963;28;1333;-67
2024/02/14 00:10:43;;;;;;;;;;;6.30;99.90;;;-146.41;100.00;57768.22;5017438;28;1690;-68
2024/02/14 00:13:10;;;;;;;;;;;6.20;99.90;;;-146.41;100.00;57768.22;5018579;28;1926;-68
2024/02/14 00:15:37;;;;;;;;;;;6.20;99.90;;;-146.41;100.00;57768.22;5018829;28;1618;-68
2024/02/14 00:18:04;;;;;;;;;;;6.20;99.90;;;-146.41;100.00;57768.22;5019943;28;1376;-68
2024/02/14 00:20:32;;;;;;;;;;;6.20;99.90;;;-146.41;100.00;57768.22;5019893;28;1312;-68
2024/02/14 00:22:59;;;;;;;;;;;6.30;99.90;;;-146.41;100.00;57768.22;5019673;28;1433;-68
2024/02/14 00:25:26;;;;;;;;;;;6.20;99.90;;;-146.41;100.00;57768.22;5019868;28;1412;-68
2024/02/14 00:27:54;;;;;;;;;;;6.20;99.90;;;-146.41;100.00;57768.22;5020968;28;1387;-68
2024/02/14 00:30:23;;;;;;;;;;;6.20;99.90;;;-146.41;100.00;57768.22;5017559;28;1399;-67
2024/02/14 00:32:50;;;;;;;;;;;6.20;99.90;;;-146.41;100.00;57768.22;5017762;28;1985;-68
2024/02/14 00:35:17;;;;;;;;;;;6.10;99.90;;;-146.41;100.00;57768.22;5018068;28;1347;-68
2024/02/14 00:37:44;;;;;;;;;;;6.10;99.90;;;-146.41;100.00;57768.22;5020135;28;1343;-67
2024/02/14 00:40:11;;;;;;;;;;;6.00;99.90;;;-146.41;100.00;57768.22;5015598;28;1394;-68
2024/02/14 00:42:38;;;;;;;;;;;6.00;99.90;;;-146.41;100.00;57768.22;5017043;28;1250;-67
2024/02/14 00:45:08;;;;;;;;;;;6.00;99.90;;;-146.41;100.00;57768.22;5021741;28;1491;-69
2024/02/14 00:47:36;;;;;;;;;;;5.90;99.90;;;-146.41;100.00;57768.22;5015703;28;1301;-68
2024/02/14 00:50:03;;;;;;;;;;;5.90;99.90;;;-146.41;100.00;57768.22;5017789;28;1493;-68
2024/02/14 00:52:30;;;;;;;;;;;5.90;99.90;;;-146.41;100.00;57768.22;5013865;28;1902;-69
2024/02/14 00:54:57;;;;;;;;;;;5.90;99.90;;;-146.41;100.00;57768.22;5013109;28;1749;-68
2024/02/14 00:57:25;;;;;;;;;;;5.80;99.90;;;-146.41;100.00;57768.22;5020399;28;1471;-68
2024/02/14 00:59:53;;;;;;;;;;;5.80;99.90;;;-146.41;100.00;57768.22;5021321;28;1675;-68
2024/02/14 01:02:20;;;;;;;;;;;5.80;99.90;;;-146.41;100.00;57768.22;5020879;28;1326;-68
2024/02/14 01:04:47;;;;;;;;;;;5.90;99.90;;;-146.41;100.00;57768.22;5020919;28;1414;-69
2024/02/14 01:07:13;;;;;;;;;;;5.90;99.90;;;-146.41;100.00;57768.22;5021168;28;1194;-68
2024/02/14 01:09:40;;;;;;;;;;;5.90;99.90;;;-146.41;100.00;57768.22;5020941;28;1339;-69
2024/02/14 01:12:07;;;;;;;;;;;5.90;99.90;;;-146.41;100.00;57768.22;5020087;28;2003;-67
2024/02/14 01:14:34;;;;;;;;;;;5.90;99.90;;;-146.41;100.00;57768.22;5022498;28;1359;-68
2024/02/14 01:17:01;;;;;;;;;;;5.90;99.90;;;-146.41;100.00;57768.22;5019354;28;1312;-68
2024/02/14 01:19:28;;;;;;;;;;;6.00;99.90;;;-146.41;100.00;57768.22;5018909;28;1258;-68
2024/02/14 01:21:58;;;;;;;;;;;6.00;99.90;;;-146.41;100.00;57768.22;5024236;28;1170;-68
2024/02/14 01:24:30;;;;;;;;;;;6.00;99.90;;;-146.41;100.00;57768.22;5020187;28;1414;-69
2024/02/14 01:26:57;;;;;;;;;;;6.00;99.90;;;-146.41;100.00;57768.22;5022679;28;1227;-68
2024/02/14 01:29:24;;;;;;;;;;;6.00;99.90;;;-146.41;100.00;57768.22;5023640;28;1942;-68
2024/02/14 01:31:50;;;;;;;;;;;6.10;99.90;;;-146.41;100.00;57768.22;5023710;28;2007;-68
2024/02/14 01:34:17;;;;;;;;;;;6.10;99.90;;;-146.41;100.00;57768.22;5021430;28;1453;-68
2024/02/14 01:36:46;;;;;;;;;;;6.10;99.90;;;-146.41;100.00;57768.22;5021949;28;1436;-67
2024/02/14 01:39:12;;;;;;;;;;;6.20;99.90;;;-146.41;100.00;57768.22;5021987;28;1200;-69
2024/02/14 01:41:48;;;;;;;;;;;6.20;99.90;;;-146.41;100.00;57768.22;5020161;28;1234;-68
2024/02/14 01:44:16;;;;;;;;;;;6.20;99.90;;;-146.41;100.00;57768.22;5021422;28;1643;-68
2024/02/14 01:46:44;;;;;;;;;;;6.20;99.90;;;-146.41;100.00;57768.22;5021627;28;1250;-68
2024/02/14 01:49:14;;;;;;;;;;;6.20;99.90;;;-146.41;100.00;57768.22;5019378;28;1242;-67
2024/02/14 01:51:44;;;;;;;;;;;6.20;99.90;;;-146.41;100.00;57768.22;5020816;28;1977;-68
2024/02/14 01:54:12;;;;;;;;;;;6.10;99.90;;;-146.41;100.00;57768.22;5018307;28;1395;-68
2024/02/14 01:56:39;;;;;;;;;;;6.10;99.90;;;-146.41;100.00;57768.22;5021680;28;1218;-67
2024/02/14 01:59:06;;;;;;;;;;;6.10;99.90;;;-146.41;100.00;57768.22;5020210;28;1258;-67
2024/02/14 02:01:33;;;;;;;;;;;6.10;99.90;;;-146.41;100.00;57768.22;5020145;28;1349;-67
2024/02/14 02:04:01;;;;;;;;;;;6.10;99.90;;;-146.41;100.00;57768.22;5020242;28;1765;-68
2024/02/14 02:06:28;;;;;;;;;;;6.10;99.90;;;-146.41;100.00;57768.22;5019058;28;1409;-68
2024/02/14 02:08:56;;;;;;;;;;;6.20;99.90;;;-146.41;100.00;57768.22;5017014;28;1235;-68
2024/02/14 02:11:25;;;;;;;;;;;6.20;99.90;;;-146.41;100.00;57768.22;5021295;28;1918;-68
2024/02/14 02:13:52;;;;;;;;;;;6.20;99.90;;;-146.41;100.00;57768.22;5020387;28;1237;-68
2024/02/14 02:16:19;;;;;;;;;;;6.30;99.90;;;-146.41;100.00;57768.22;5018692;28;1343;-67
2024/02/14 02:18:46;;;;;;;;;;;6.30;99.90;;;-146.41;100.00;57768.22;5018777;28;1920;-67
2024/02/14 02:21:13;;;;;;;;;;;6.30;99.90;;;-146.41;100.00;57768.22;5020172;28;1310;-68
2024/02/14 02:23:45;;;;;;;;;;;6.30;99.90;;;-146.41;100.00;57768.22;5019423;28;1414;-67
2024/02/14 02:26:12;;;;;;;;;;;6.40;99.90;;;-146.41;100.00;57768.22;5017924;28;1457;-68
2024/02/14 02:28:39;;;;;;;;;;;6.40;99.90;;;-146.41;100.00;57768.22;5021433;28;1226;-67
2024/02/14 02:31:07;;;;;;;;;;;6.40;99.90;;;-146.41;100.00;57768.22;5022885;28;1366;-68
2024/02/14 02:33:33;;;;;;;;;;;6.40;99.90;;;-146.41;100.00;57768.22;5020151;28;1926;-68
2024/02/14 02:36:00;;;;;;;;;;;6.50;99.90;;;-146.41;100.00;57768.22;5021922;28;1443;-67
2024/02/14 02:38:28;;;;;;;;;;;6.50;99.90;;;-146.41;100.00;57768.22;5021859;28;1219;-67
2024/02/14 02:40:55;;;;;;;;;;;6.50;99.90;;;-146.41;100.00;57768.22;5018779;28;1234;-68
2024/02/14 02:43:21;;;;;;;;;;;6.50;99.90;;;-146.41;100.00;57768.22;5018079;28;1192;-67
2024/02/14 02:45:48;;;;;;;;;;;6.50;99.90;;;-146.41;100.00;57768.22;5019163;28;1386;-67
2024/02/14 02:48:15;;;;;;;;;;;6.50;99.90;;;-146.41;100.00;57768.22;5021317;28;1238;-67
2024/02/14 02:50:44;;;;;;;;;;;6.60;99.90;;;-146.41;100.00;57768.22;5003361;28;1468;-68
2024/02/14 02:53:11;;;;;;;;;;;6.60;99.90;;;-146.41;100.00;57768.22;5020027;28;2022;-68
2024/02/14 02:55:46;;;;;;;;;;;6.60;99.90;;;-146.41;100.00;57768.22;5021091;28;1519;-70
2024/02/14 02:58:13;;;;;;;;;;;6.60;99.90;;;-146.41;100.00;57768.22;5002727;28;1178;-68
2024/02/14 03:00:40;;;;;;;;;;;6.60;99.90;;;-146.41;100.00;57768.22;5019376;28;1255;-68
2024/02/14 03:03:08;;;;;;;;;;;6.60;99.90;;;-146.41;100.00;57768.22;5018812;28;1366;-68
2024/02/14 03:05:36;;;;;;;;;;;6.70;99.90;;;-146.41;100.00;57768.22;5016755;28;1472;-68
2024/02/14 03:08:03;;;;;;;;;;;6.70;99.90;;;-146.41;100.00;57768.22;5021921;28;1392;-68
2024/02/14 03:10:30;;;;;;;;;;;6.70;99.90;;;-146.41;100.00;57768.22;5020209;28;1307;-67
2024/02/14 03:12:57;;;;;;;;;;;6.70;99.90;;;-146.41;100.00;57768.22;5021074;28;1902;-68
2024/02/14 03:15:25;;;;;;;;;;;6.70;99.90;;;-146.41;100.00;57768.22;5021439;28;1296;-68
2024/02/14 03:17:52;;;;;;;;;;;6.70;99.90;;;-146.41;100.00;57768.22;5018986;28;1283;-67
2024/02/14 03:20:19;;;;;;;;;;;6.70;99.90;;;-146.41;100.00;57768.22;5018616;28;1426;-68
2024/02/14 03:22:47;;;;;;;;;;;6.70;99.90;;;-146.41;100.00;57768.22;5019953;28;1256;-68
2024/02/14 03:25:19;;;;;;;;;;;6.70;99.90;;;-146.41;100.00;57768.22;5019877;28;1339;-68
2024/02/14 03:27:52;;;;;;;;;;;6.60;99.90;;;-146.41;100.00;57768.22;5019509;28;1257;-67
2024/02/14 03:30:20;;;;;;;;;;;6.60;99.90;;;-146.41;100.00;57768.22;5017262;28;1210;-68
2024/02/14 03:32:47;;;;;;;;;;;6.60;99.90;;;-146.41;100.00;57768.22;5020706;28;1934;-68
2024/02/14 03:35:15;;;;;;;;;;;6.70;99.90;;;-146.41;100.00;57768.22;5014405;28;1395;-68
2024/02/14 03:37:43;;;;;;;;;;;6.60;99.90;;;-146.41;100.00;57768.22;5015904;28;1271;-68
2024/02/14 03:40:11;;;;;;;;;;;6.80;99.90;;;-146.41;100.00;57768.22;5018609;28;1251;-67
2024/02/14 03:42:41;;;;;;;;;;;6.80;99.90;;;-146.41;100.00;57768.22;5020155;28;1118;-68
2024/02/14 03:45:09;;;;;;;;;;;6.70;99.90;;;-146.41;100.00;57768.22;5015100;28;1374;-68
2024/02/14 03:47:42;;;;;;;;;;;6.70;99.90;;;-146.41;100.00;57768.22;5017034;28;1626;-68
2024/02/14 03:50:09;;;;;;;;;;;6.70;99.90;;;-146.41;100.00;57768.22;5019790;28;1432;-68
2024/02/14 03:52:36;;;;;;;;;;;6.60;99.90;;;-146.41;100.00;57768.22;5017992;28;1918;-67
2024/02/14 03:55:05;;;;;;;;;;;6.60;99.90;;;-146.41;100.00;57768.22;5018066;28;1400;-66
2024/02/14 03:57:35;;;;;;;;;;;6.60;99.90;;;-146.41;100.00;57768.22;5017736;28;1319;-69
2024/02/14 04:00:02;;;;;;;;;;;6.60;99.90;;;-146.41;100.00;57768.22;5018867;28;1062;-67
2024/02/14 04:02:31;;;;;;;;;;;6.60;99.90;;;-146.41;100.00;57768.22;5004642;28;1409;-68
2024/02/14 04:04:59;;;;;;;;;;;6.60;99.90;;;-146.41;100.00;57768.22;5015504;28;1330;-67
2024/02/14 04:07:26;;;;;;;;;;;6.70;99.90;;;-146.41;100.00;57768.22;5018253;28;1046;-68
2024/02/14 04:09:53;;;;;;;;;;;6.70;99.90;;;-146.41;100.00;57768.22;5017875;28;1298;-68
2024/02/14 04:12:20;;;;;;;;;;;6.80;99.90;;;-146.41;100.00;57768.22;5016791;28;1894;-67
2024/02/14 04:14:47;;;;;;;;;;;6.70;99.90;;;-146.41;100.00;57768.22;5019465;28;1310;-68
2024/02/14 04:17:14;;;;;;;;;;;6.70;99.90;;;-146.41;100.00;57768.22;5016777;28;1421;-68
2024/02/14 04:19:41;;;;;;;;;;;6.60;99.90;;;-146.41;100.00;57768.22;5017230;28;1382;-68
2024/02/14 04:22:09;;;;;;;;;;;6.50;99.90;;;-146.41;100.00;57768.22;5019072;28;1148;-67
2024/02/14 04:24:36;;;;;;;;;;;6.50;99.90;;;-146.41;100.00;57768.22;5019688;28;1394;-68
2024/02/14 04:27:03;;;;;;;;;;;6.40;99.90;;;-146.41;100.00;57768.22;5019353;28;1060;-69
2024/02/14 04:29:32;;;;;;;;;;;6.40;99.90;;;-146.41;100.00;57768.22;5016640;28;1329;-67
2024/02/14 04:32:00;;;;;;;;;;;6.30;99.90;;;-146.41;100.00;57768.22;5019407;28;1902;-68
2024/02/14 04:34:27;;;;;;;;;;;6.30;99.90;;;-146.41;100.00;57768.22;5025695;28;1526;-68
2024/02/14 04:36:55;;;;;;;;;;;6.40;99.90;;;-146.41;100.00;57768.22;5022956;28;1035;-67
2024/02/14 04:39:22;;;;;;;;;;;6.30;99.90;;;-146.41;100.00;57768.22;5022293;28;1425;-67
2024/02/14 04:41:50;;;;;;;;;;;6.40;99.90;;;-146.41;100.00;57768.22;5022009;28;1287;-68
2024/02/14 04:44:28;;;;;;;;;;;6.40;99.90;;;-146.41;100.00;57768.22;5023634;28;1340;-67
2024/02/14 04:46:56;;;;;;;;;;;6.40;99.90;;;-146.41;100.00;57768.22;5018943;28;1422;-68
2024/02/14 04:49:23;;;;;;;;;;;6.40;99.90;;;-146.41;100.00;57768.22;5022011;28;1237;-67
2024/02/14 04:51:54;;;;;;;;;;;6.40;99.90;;;-146.41;100.00;57768.22;5021546;28;1315;-67
2024/02/14 04:54:21;;;;;;;;;;;6.40;99.90;;;-146.41;100.00;57768.22;5021423;28;1902;-67
2024/02/14 04:56:48;;;;;;;;;;;6.40;99.90;;;-146.41;100.00;57768.22;5022283;28;1528;-67
2024/02/14 04:59:20;;;;;;;;;;;6.30;99.90;;;-146.41;100.00;57768.22;5022876;28;1219;-68
2024/02/14 05:01:47;;;;;;;;;;;6.30;99.90;;;-146.41;100.00;57768.22;5022013;28;1370;-68
2024/02/14 05:04:16;;;;;;;;;;;6.30;99.90;;;-146.41;100.00;57768.22;5019788;28;1565;-68
2024/02/14 05:06:43;;;;;;;;;;;6.30;99.90;;;-146.41;100.00;57768.22;5021124;28;1267;-68
2024/02/14 05:09:10;;;;;;;;;;;6.30;99.90;;;-146.41;100.00;57768.22;5021319;28;1171;-68
2024/02/14 05:11:37;;;;;;;;;;;6.30;99.90;;;-146.41;100.00;57768.22;5020014;28;1335;-68
2024/02/14 05:14:04;;;;;;;;;;;6.40;99.90;;;-146.41;100.00;57768.22;5021051;28;1914;-68
2024/02/14 05:16:31;;;;;;;;;;;6.40;99.90;;;-146.41;100.00;57768.22;5022534;28;1341;-67
2024/02/14 05:18:58;;;;;;;;;;;6.40;99.90;;;-146.41;100.00;57768.22;5023883;28;1421;-68
2024/02/14 05:21:27;;;;;;;;;;;6.40;99.90;;;-146.41;100.00;57768.22;5019728;28;1596;-68
2024/02/14 05:23:53;;;;;;;;;;;6.40;99.90;;;-146.41;100.00;57768.22;5022363;28;1337;-68
2024/02/14 05:26:20;;;;;;;;;;;6.30;99.90;;;-146.41;100.00;57768.22;5019582;28;1383;-68
2024/02/14 05:28:47;;;;;;;;;;;6.20;99.90;;;-146.41;100.00;57768.22;5021140;28;1215;-68
2024/02/14 05:31:15;;;;;;;;;;;6.20;99.90;;;-146.41;100.00;57768.22;5022264;28;1272;-68
2024/02/14 05:33:43;;;;;;;;;;;6.20;99.90;;;-146.41;100.00;57768.22;5022299;28;1906;-67
2024/02/14 05:36:10;;;;;;;;;;;6.20;99.90;;;-146.41;100.00;57768.22;5022588;28;1374;-68
2024/02/14 05:38:37;;;;;;;;;;;6.10;99.90;;;-146.41;100.00;57768.22;5021984;28;1199;-68
2024/02/14 05:41:04;;;;;;;;;;;6.10;99.90;;;-146.41;100.00;57768.22;5019200;28;1356;-67
2024/02/14 05:43:31;;;;;;;;;;;6.20;99.90;;;-146.41;100.00;57768.22;5018816;28;1586;-68
2024/02/14 05:45:58;;;;;;;;;;;6.20;99.90;;;-146.41;100.00;57768.22;5018671;28;1340;-67
2024/02/14 05:48:25;;;;;;;;;;;6.20;99.90;;;-146.41;100.00;57768.22;5021943;28;1475;-68
2024/02/14 05:50:52;;;;;;;;;;;6.20;99.90;;;-146.41;100.00;57768.22;5021405;28;1297;-68
2024/02/14 05:53:20;;;;;;;;;;;6.10;99.90;;;-146.41;100.00;57768.22;5021319;28;2197;-67
2024/02/14 05:55:47;;;;;;;;;;;6.20;99.90;;;-146.41;100.00;57768.22;5022857;28;1367;-67
2024/02/14 05:58:13;;;;;;;;;;;6.20;99.90;;;-146.41;100.00;57768.22;5022001;28;1594;-68
2024/02/14 06:00:40;;;;;;;;;;;6.20;99.90;;;-146.41;100.00;57768.22;5021528;28;1344;-68
2024/02/14 06:03:08;;;;;;;;;;;6.20;99.90;;;-146.41;100.00;57768.22;5018183;28;1397;-68
2024/02/14 06:05:35;;;;;;;;;;;6.20;99.90;;;-146.41;100.00;57768.22;5018599;28;1891;-68
2024/02/14 06:08:02;;;;;;;;;;;6.20;99.90;;;-146.41;100.00;57768.22;5021438;28;1542;-67
2024/02/14 06:10:30;;;;;;;;;;;6.20;99.90;;;-146.41;100.00;57768.22;5018523;28;1425;-68
2024/02/14 06:12:56;;;;;;;;;;;6.20;99.90;;;-146.41;100.00;57768.22;5020080;28;1989;-67
2024/02/14 06:15:23;;;;;;;;;;;6.20;99.90;;;-146.41;100.00;57768.22;5018148;28;1355;-68
2024/02/14 06:17:50;;;;;;;;;;;6.20;99.90;;;-146.41;100.00;57768.22;5018454;28;1338;-68
2024/02/14 06:20:18;;;;;;;;;;;6.30;99.90;;;-146.41;100.00;57768.22;5018372;28;1077;-67
2024/02/14 06:22:45;;;;;;;;;;;6.20;99.90;;;-146.41;100.00;57768.22;5021092;28;1160;-67
2024/02/14 06:25:23;;;;;;;;;;;6.30;99.90;;;-146.41;100.00;57768.22;5020103;28;1457;-68
2024/02/14 06:27:50;;;;;;;;;;;6.20;99.90;;;-146.41;100.00;57768.22;5019299;28;1084;-68
2024/02/14 06:30:17;;;;;;;;;;;6.30;99.90;;;-146.41;100.00;57768.22;5019684;28;1138;-68
2024/02/14 06:32:44;;;;;;;;;;;6.30;99.90;;;-146.41;100.00;57768.22;5019142;28;1906;-68
2024/02/14 06:35:14;;;;;;;;;;;6.30;99.90;;;-146.41;100.00;57768.22;5019276;28;1348;-68
2024/02/14 06:37:42;;;;;;;;;;;6.30;99.90;;;-146.41;100.00;57768.22;5017370;28;1112;-68
2024/02/14 06:40:22;;;;;;;;;;;6.30;99.90;;;-146.41;100.00;57768.22;5009159;28;1476;-67
2024/02/14 06:42:52;;;;;;;;;;;6.30;99.90;;;-146.41;100.00;57768.22;5020684;28;1349;-70
2024/02/14 06:45:18;;;;;;;;;;;6.30;99.90;;;-146.41;100.00;57768.22;5018013;28;1276;-67
2024/02/14 06:47:45;;;;;;;;;;;6.30;99.90;;;-146.41;100.00;57768.22;5020744;28;1454;-68
2024/02/14 06:50:13;;;;;;;;;;;6.30;99.90;;;-146.41;100.00;57768.22;5020209;28;1108;-68
2024/02/14 06:52:39;;;;;;;;;;;6.30;99.90;;;-146.41;100.00;57768.22;5018953;28;1960;-68
2024/02/14 06:55:07;;;;;;;;;;;6.30;99.90;;;-146.41;100.00;57768.22;5016315;28;1597;-68
2024/02/14 06:57:34;;;;;;;;;;;6.30;99.90;;;-146.41;100.00;57768.22;5021150;28;1613;-69
2024/02/14 07:00:01;;;;;;;;;;;6.30;99.90;;;-146.41;100.00;57768.22;5017071;28;1350;-68
2024/02/14 07:02:28;;;;;;;;;;;6.40;99.90;;;-146.41;100.00;57768.22;5016428;28;1413;-68
2024/02/14 07:04:55;;;;;;;;;;;6.40;99.90;;;-146.41;100.00;57768.22;5018063;28;1217;-69
2024/02/14 07:07:22;;;;;;;;;;;6.40;99.90;;;-146.41;100.00;57768.22;5019460;28;1220;-68
2024/02/14 07:09:48;;;;;;;;;;;6.40;99.90;;;-146.41;100.00;57768.22;5019431;28;1257;-68
2024/02/14 07:12:15;;;;;;;;;;;6.50;99.90;;;-146.41;100.00;57768.22;5020296;28;1316;-68
2024/02/14 07:14:42;;;;;;;;;;;6.50;99.90;;;-146.41;100.00;57768.22;5016921;28;1945;-69
2024/02/14 07:17:09;;;;;;;;;;;6.50;99.90;;;-146.41;100.00;57768.22;5021341;28;1228;-67
2024/02/14 07:19:38;;;;;;;;;;;6.50;99.90;;;-146.41;100.00;57768.22;5018832;28;970;-68
2024/02/14 07:22:05;;;;;;;;;;;6.40;99.90;;;-146.41;100.00;57768.22;5017681;28;1073;-68
2024/02/14 07:24:32;;;;;;;;;;;6.40;99.90;;;-146.41;100.00;57768.22;5004723;28;1544;-68
2024/02/14 07:26:58;;;;;;;;;;;6.40;99.90;;;-146.41;100.00;57768.22;5019758;28;1204;-69
2024/02/14 07:29:25;;;;;;;;;;;6.50;99.90;;;-146.41;100.00;57768.22;5021893;28;1464;-68
2024/02/14 07:31:52;;;;;;;;;;;6.50;99.90;;;-146.41;100.00;57768.22;5018159;28;1549;-68
2024/02/14 07:34:19;;;;;;;;;;;6.50;99.90;;;-146.41;100.00;57768.22;5019355;28;1987;-68
2024/02/14 07:36:46;;;;;;;;;;;6.50;99.90;;;-146.41;100.00;57768.22;5015735;28;1082;-68
2024/02/14 07:39:13;;;;;;;;;;;6.60;99.90;;;-146.41;100.00;57768.22;5020178;28;1196;-68
2024/02/14 07:41:41;;;;;;;;;;;6.50;99.90;;;-146.41;100.00;57768.22;5017613;28;1417;-68
2024/02/14 07:44:07;;;;;;;;;;;6.50;99.90;;;-146.41;100.00;57768.22;5015503;28;1304;-68
2024/02/14 07:46:34;;;;;;;;;;;6.60;99.90;;;-146.41;100.00;57768.22;5016919;28;1452;-68
2024/02/14 07:49:01;;;;;;;;;;;6.50;99.90;;;-146.41;100.00;57768.22;5016429;28;1175;-68
2024/02/14 07:51:29;;;;;;;;;;;6.60;99.90;;;-146.41;100.00;57768.22;5018096;28;1079;-69
2024/02/14 07:53:56;;;;;;;;;;;6.60;99.90;;;-146.41;100.00;57768.22;5019294;28;1902;-68
2024/02/14 07:56:23;;;;;;;;;;;6.60;99.90;;;-146.41;100.00;57768.22;5017186;28;1343;-68
2024/02/14 07:58:49;;;;;;;;;;;6.60;99.90;;;-146.41;100.00;57768.22;5015001;28;1401;-68
2024/02/14 08:01:17;;;;;;;;;;;6.60;99.90;;;-146.41;100.00;57768.22;5019250;28;1397;-68
2024/02/14 08:03:45;;;;;;;;;;;6.70;99.90;;;-146.41;100.00;57768.22;5017990;28;1259;-68
2024/02/14 08:06:13;;;;;;;;;;;6.70;99.90;;;-146.41;100.00;57768.22;5015023;28;1670;-68
2024/02/14 08:08:40;;;;;;;;;;;6.70;99.90;;;-146.41;100.00;57768.22;5021108;28;1200;-68
2024/02/14 08:11:07;;;;;;;;;;;6.80;99.90;;;-146.41;100.00;57768.22;5020759;28;1291;-68
2024/02/14 08:13:34;;;;;;;;;;;6.80;99.90;;;-146.41;100.00;57768.22;5017635;28;1945;-69
2024/02/14 08:16:01;;;;;;;;;;;6.80;99.90;;;-146.41;100.00;57768.22;5017889;28;1458;-68
2024/02/14 08:18:28;;;;;;;;;;;6.80;99.90;;;-146.41;100.00;57768.22;5016896;28;1372;-68
2024/02/14 08:20:55;;;;;;;;;;;6.80;99.90;;;-146.41;100.00;57768.22;5017154;28;1334;-69
2024/02/14 08:23:22;;;;;;;;;;;6.80;99.90;;;-146.41;100.00;57768.22;5017600;28;1188;-68
2024/02/14 08:25:49;;;;;;;;;;;6.80;99.90;;;-146.41;100.00;57768.22;5017199;28;1352;-68
2024/02/14 08:28:17;;;;;;;;;;;6.80;99.90;;;-146.41;100.00;57768.22;5022008;28;1121;-68
2024/02/14 08:30:45;;;;;;;;;;;6.80;99.90;;;-146.41;100.00;57768.22;5018089;28;2044;-68
2024/02/14 08:33:11;;;;;;;;;;;6.80;99.90;;;-146.41;100.00;57768.22;5018379;28;1985;-68
2024/02/14 08:35:39;;;;;;;;;;;6.90;99.90;;;-146.41;100.00;57768.22;5019182;28;1332;-68
2024/02/14 08:38:10;;;;;;;;;;;6.90;99.90;;;-146.41;100.00;57768.22;5015863;28;994;-68
2024/02/14 08:40:36;;;;;;;;;;;7.00;99.90;;;-146.41;100.00;57768.22;5019651;28;1080;-68
2024/02/14 08:43:04;;;;;;;;;;;6.90;99.90;;;-146.41;100.00;57768.22;5017169;28;1290;-68
2024/02/14 08:45:31;;;;;;;;;;;7.00;99.90;;;-146.41;100.00;57768.22;5014506;28;1363;-69
2024/02/14 08:47:59;;;;;;;;;;;7.00;99.90;;;-146.41;100.00;57768.22;5013150;28;1091;-68
2024/02/14 08:50:26;;;;;;;;;;;7.00;99.90;;;-146.41;100.00;57768.22;5018014;28;1236;-68
2024/02/14 08:52:52;;;;;;;;;;;7.00;99.90;;;-146.41;100.00;57768.22;5017583;28;1097;-68
2024/02/14 08:55:19;;;;;;;;;;;7.00;99.90;;;-146.41;100.00;57768.22;5016493;28;1930;-68
2024/02/14 08:57:47;;;;;;;;;;;7.00;99.90;;;-146.41;100.00;57768.22;5021812;28;1181;-68
2024/02/14 09:00:19;;;;;;;;;;;7.10;99.90;;;-146.41;100.00;57768.22;5017410;28;1358;-69
2024/02/14 09:02:47;;;;;;;;;;;7.10;99.90;;;-146.41;100.00;57768.22;5016561;28;1303;-68
2024/02/14 09:05:14;;;;;;;;;;;7.10;99.90;;;-146.41;100.00;57768.22;5008008;28;1388;-68
2024/02/14 09:07:41;;;;;;;;;;;7.10;99.90;;;-146.41;100.00;57768.22;5019547;28;1160;-68
2024/02/14 09:10:10;;;;;;;;;;;7.10;99.90;;;-146.41;100.00;57768.22;5016869;28;1446;-69
2024/02/14 09:12:37;;;;;;;;;;;7.20;99.90;;;-146.41;100.00;57768.22;5017462;28;1022;-68
2024/02/14 09:15:05;;;;;;;;;;;7.20;99.90;;;-146.41;100.00;57768.22;5016878;28;1926;-68
2024/02/14 09:17:32;;;;;;;;;;;7.20;99.90;;;-146.41;100.00;57768.22;5019000;28;1053;-69
2024/02/14 09:19:59;;;;;;;;;;;7.30;99.90;;;-146.41;100.00;57768.22;5019162;28;1949;-69
2024/02/14 09:22:26;;;;;;;;;;;7.40;99.90;;;-146.41;100.00;57768.22;5021572;28;1036;-68
2024/02/14 09:24:53;;;;;;;;;;;7.40;99.90;;;-146.41;100.00;57768.22;5020849;28;1407;-69
2024/02/14 09:27:20;;;;;;;;;;;7.40;99.90;;;-146.41;100.00;57768.22;5018434;28;1128;-68
2024/02/14 09:29:47;;;;;;;;;;;7.40;99.90;;;-146.41;100.00;57768.22;5018736;28;1074;-68
2024/02/14 09:32:14;;;;;;;;;;;7.40;99.90;;;-146.41;100.00;57768.22;5020434;28;1317;-68
2024/02/14 09:34:41;;;;;;;;;;;7.50;99.90;;;-146.41;100.00;57768.22;5019579;28;1922;-68
2024/02/14 09:37:09;;;;;;;;;;;7.50;99.90;;;-146.41;100.00;57768.22;5019205;28;1069;-69
2024/02/14 09:39:36;;;;;;;;;;;7.40;99.90;;;-146.41;100.00;57768.22;5020346;28;1133;-69
2024/02/14 09:42:09;;;;;;;;;;;7.50;99.90;;;-146.41;100.00;57768.22;5020502;28;1107;-68
2024/02/14 09:44:38;;;;;;;;;;;7.50;99.90;;;-146.41;100.00;57768.22;5021293;28;1508;-68
2024/02/14 09:47:09;;;;;;;;;;;7.60;99.90;;;-146.41;100.00;57768.22;5025629;28;1318;-68
2024/02/14 09:49:39;;;;;;;;;;;7.50;99.90;;;-146.41;100.00;57768.22;5017072;28;1647;-68
2024/02/14 09:52:08;;;;;;;;;;;7.60;99.90;;;-146.41;100.00;57768.22;5020329;28;1497;-68
2024/02/14 09:54:38;;;;;;;;;;;7.60;99.90;;;-146.41;100.00;57768.22;5017770;28;1894;-68
2024/02/14 09:57:06;;;;;;;;;;;7.50;99.90;;;-146.41;100.00;57768.22;5019968;28;1346;-68
2024/02/14 09:59:33;;;;;;;;;;;7.60;99.90;;;-146.41;100.00;57768.22;5016501;28;1222;-68
2024/02/14 10:02:00;;;;;;;;;;;7.50;99.90;;;-146.41;100.00;57768.22;5018321;28;1303;-69
2024/02/14 10:04:27;;;;;;;;;;;7.60;99.90;;;-146.41;100.00;57768.22;5019422;28;1406;-69
2024/02/14 10:06:55;;;;;;;;;;;7.60;99.90;;;-146.41;100.00;57768.22;5018712;28;1218;-68
2024/02/14 10:09:22;;;;;;;;;;;7.70;99.90;;;-146.41;100.00;57768.22;5001847;28;1230;-68
2024/02/14 10:11:49;;;;;;;;;;;7.80;99.90;;;-146.41;100.00;57768.22;5019932;28;1217;-68
2024/02/14 10:14:16;;;;;;;;;;;7.70;99.90;;;-146.41;100.00;57768.22;5016678;28;1981;-68
2024/02/14 10:16:45;;;;;;;;;;;7.70;99.90;;;-146.41;100.00;57768.22;5024140;28;1221;-68
2024/02/14 10:19:17;;;;;;;;;;;7.80;99.90;;;-146.41;100.00;57768.22;5015808;28;1319;-68
2024/02/14 10:21:56;;;;;;;;;;;7.80;99.90;;;-146.41;100.00;57768.22;5017717;28;1337;-69
2024/02/14 10:24:27;;;;;;;;;;;7.80;99.90;;;-146.41;100.00;57768.22;5029790;28;1469;-69
2024/02/14 10:26:57;;;;;;;;;;;7.90;99.90;;;-146.41;100.00;57768.22;5017756;28;1246;-69
2024/02/14 10:29:25;;;;;;;;;;;7.90;99.90;;;-146.41;100.00;57768.22;5020281;28;1089;-69
2024/02/14 10:31:52;;;;;;;;;;;7.90;99.90;;;-146.41;100.00;57768.22;5020337;28;1088;-69
2024/02/14 10:34:27;;;;;;;;;;;8.00;99.90;;;-146.41;100.00;57768.22;5006653;28;1971;-68
2024/02/14 10:36:56;;;;;;;;;;;;;;;-146.41;100.00;57768.22;5020372;28;1401;-69
2024/02/14 10:39:25;;;;;;;;;;;8.00;99.90;;;-146.41;100.00;57768.22;5020494;28;1111;-69
2024/02/14 10:41:52;;;;;;;;;;;8.00;99.90;;;-146.41;100.00;57768.22;5025502;28;1365;-68
2024/02/14 10:44:20;;;;;;;;;;;8.00;99.90;;;-146.41;100.00;57768.22;5017725;28;1386;-68
2024/02/14 10:46:49;;;;;;;;;;;8.10;99.90;;;-146.41;100.00;57768.22;5020693;28;1410;-68
2024/02/14 10:49:16;;;;;;;;;;;8.00;99.90;;;-146.41;100.00;57768.22;5024373;28;1282;-68
2024/02/14 10:51:48;;;;;;;;;;;8.10;99.90;;;-146.41;100.00;57768.22;5016521;28;1405;-68
2024/02/14 10:54:19;;;;;;;;;;;8.10;99.90;;;-146.41;100.00;57768.22;5015209;28;1960;-68
2024/02/14 10:56:49;;;;;;;;;;;8.00;99.90;;;-146.41;100.00;57768.22;5017465;28;1108;-69
2024/02/14 10:59:19;;;;;;;;;;;8.10;99.90;;;-146.41;100.00;57768.22;5017553;28;1152;-70
2024/02/14 11:01:47;;;;;;;;;;;8.10;99.90;;;-146.41;100.00;57768.22;5020227;28;1066;-69
2024/02/14 11:04:14;;;;;;;;;;;8.20;99.90;;;-146.41;100.00;57768.22;5018916;28;1540;-68
2024/02/14 11:06:48;;;;;;;;;;;8.20;99.90;;;-146.41;100.00;57768.22;5004523;28;1521;-69
2024/02/14 11:09:15;;;;;;;;;;;8.20;99.90;;;-146.41;100.00;57768.22;5019005;28;1378;-68
2024/02/14 11:11:46;;;;;;;;;;;8.30;99.90;;;-146.41;100.00;57768.22;5023673;28;1108;-69